sensor_id;sensor_type;location;lat;lon;timestamp;temperature;humidity
51793;DHT22;37850;53.178;6.376;2023-05-24T00:01:42;8.60;99.90
51793;DHT22;37850;53.178;6.376;2023-05-24T00:04:08;8.60;99.90
51793;DHT22;37850;53.178;6.376;2023-05-24T00:06:38;8.60;99.90
51793;DHT22;37850;53.178;6.376;2023-05-24T00:09:04;8.60;99.90
51793;DHT22;37850;53.178;6.376;2023-05-24T00:11:29;8.60;99.90
51793;DHT22;37850;53.178;6.376;2023-05-24T00:13:55;8.60;99.90
51793;DHT22;37850;53.178;6.376;2023-05-24T00:16:21;8.60;99.90
51793;DHT22;37850;53.178;6.376;2023-05-24T00:18:47;8.60;99.90
51793;DHT22;37850;53.178;6.376;2023-05-24T00:21:13;8.60;99.90
51793;DHT22;37850;53.178;6.376;2023-05-24T00:23:40;8.60;99.90
51793;DHT22;37850;53.178;6.376;2023-05-24T00:26:07;8.60;99.90
51793;DHT22;37850;53.178;6.376;2023-05-24T00:28:33;8.60;99.90
51793;DHT22;37850;53.178;6.376;2023-05-24T00:31:00;9.00;99.90
51793;DHT22;37850;53.178;6.376;2023-05-24T00:33:26;8.60;99.90
51793;DHT22;37850;53.178;6.376;2023-05-24T00:35:53;8.60;99.90
51793;DHT22;37850;53.178;6.376;2023-05-24T00:38:23;8.60;99.90
51793;DHT22;37850;53.178;6.376;2023-05-24T00:40:49;8.60;99.90
51793;DHT22;37850;53.178;6.376;2023-05-24T00:43:16;8.60;99.90
51793;DHT22;37850;53.178;6.376;2023-05-24T00:45:41;8.50;99.90
51793;DHT22;37850;53.178;6.376;2023-05-24T00:48:08;8.50;99.90
51793;DHT22;37850;53.178;6.376;2023-05-24T00:50:34;8.90;99.90
51793;DHT22;37850;53.178;6.376;2023-05-24T00:53:02;8.50;99.90
51793;DHT22;37850;53.178;6.376;2023-05-24T00:55:29;8.50;99.90
51793;DHT22;37850;53.178;6.376;2023-05-24T00:57:56;8.50;99.90
51793;DHT22;37850;53.178;6.376;2023-05-24T01:00:22;8.40;99.90
51793;DHT22;37850;53.178;6.376;2023-05-24T01:02:49;8.50;99.90
51793;DHT22;37850;53.178;6.376;2023-05-24T01:05:16;8.60;99.90
51793;DHT22;37850;53.178;6.376;2023-05-24T01:18:17;8.30;99.90
51793;DHT22;37850;53.178;6.376;2023-05-24T01:20:52;8.40;99.90
51793;DHT22;37850;53.178;6.376;2023-05-24T01:26:17;8.30;99.90
51793;DHT22;37850;53.178;6.376;2023-05-24T01:28:46;8.40;99.90
51793;DHT22;37850;53.178;6.376;2023-05-24T01:31:14;8.40;99.90
51793;DHT22;37850;53.178;6.376;2023-05-24T01:33:41;8.30;99.90
51793;DHT22;37850;53.178;6.376;2023-05-24T01:36:07;8.30;99.90
51793;DHT22;37850;53.178;6.376;2023-05-24T01:38:33;8.30;99.90
51793;DHT22;37850;53.178;6.376;2023-05-24T01:43:44;8.30;99.90
51793;DHT22;37850;53.178;6.376;2023-05-24T01:46:24;8.40;99.90
51793;DHT22;37850;53.178;6.376;2023-05-24T01:51:33;8.40;99.90
51793;DHT22;37850;53.178;6.376;2023-05-24T01:54:03;8.40;99.90
51793;DHT22;37850;53.178;6.376;2023-05-24T01:56:30;8.40;99.90
51793;DHT22;37850;53.178;6.376;2023-05-24T01:58:58;8.40;99.90
51793;DHT22;37850;53.178;6.376;2023-05-24T02:01:25;8.40;99.90
51793;DHT22;37850;53.178;6.376;2023-05-24T02:03:51;8.40;99.90
51793;DHT22;37850;53.178;6.376;2023-05-24T02:06:17;8.40;99.90
51793;DHT22;37850;53.178;6.376;2023-05-24T02:08:42;8.40;99.90
51793;DHT22;37850;53.178;6.376;2023-05-24T02:11:08;8.50;99.90
51793;DHT22;37850;53.178;6.376;2023-05-24T02:13:34;8.40;99.90
51793;DHT22;37850;53.178;6.376;2023-05-24T02:16:00;8.40;99.90
51793;DHT22;37850;53.178;6.376;2023-05-24T02:18:26;8.50;99.90
51793;DHT22;37850;53.178;6.376;2023-05-24T02:20:52;8.50;99.90
51793;DHT22;37850;53.178;6.376;2023-05-24T02:23:17;8.50;99.90
51793;DHT22;37850;53.178;6.376;2023-05-24T02:25:43;8.50;99.90
51793;DHT22;37850;53.178;6.376;2023-05-24T02:28:09;8.50;99.90
51793;DHT22;37850;53.178;6.376;2023-05-24T02:30:37;8.50;99.90
51793;DHT22;37850;53.178;6.376;2023-05-24T02:33:03;8.50;99.90
51793;DHT22;37850;53.178;6.376;2023-05-24T02:35:30;8.50;99.90
51793;DHT22;37850;53.178;6.376;2023-05-24T02:37:57;8.50;99.90
51793;DHT22;37850;53.178;6.376;2023-05-24T02:40:23;8.50;99.90
51793;DHT22;37850;53.178;6.376;2023-05-24T02:42:49;8.50;99.90
51793;DHT22;37850;53.178;6.376;2023-05-24T02:45:14;8.50;99.90
51793;DHT22;37850;53.178;6.376;2023-05-24T02:47:40;8.70;99.90
51793;DHT22;37850;53.178;6.376;2023-05-24T02:50:06;8.50;99.90
51793;DHT22;37850;53.178;6.376;2023-05-24T02:52:32;8.50;99.90
51793;DHT22;37850;53.178;6.376;2023-05-24T02:54:58;8.50;99.90
51793;DHT22;37850;53.178;6.376;2023-05-24T02:57:23;8.50;99.90
51793;DHT22;37850;53.178;6.376;2023-05-24T02:59:49;8.60;99.90
51793;DHT22;37850;53.178;6.376;2023-05-24T03:02:15;8.50;99.90
51793;DHT22;37850;53.178;6.376;2023-05-24T03:04:42;8.50;99.90
51793;DHT22;37850;53.178;6.376;2023-05-24T03:07:08;8.60;99.90
51793;DHT22;37850;53.178;6.376;2023-05-24T03:09:33;8.60;99.90
51793;DHT22;37850;53.178;6.376;2023-05-24T03:11:59;8.60;99.90
51793;DHT22;37850;53.178;6.376;2023-05-24T03:14:25;8.60;99.90
51793;DHT22;37850;53.178;6.376;2023-05-24T03:16:50;8.60;99.90
51793;DHT22;37850;53.178;6.376;2023-05-24T03:19:16;8.60;99.90
51793;DHT22;37850;53.178;6.376;2023-05-24T03:21:42;8.70;99.90
51793;DHT22;37850;53.178;6.376;2023-05-24T03:24:08;8.60;99.90
51793;DHT22;37850;53.178;6.376;2023-05-24T03:26:34;8.60;99.90
51793;DHT22;37850;53.178;6.376;2023-05-24T03:29:00;8.60;99.90
51793;DHT22;37850;53.178;6.376;2023-05-24T03:31:25;8.60;99.90
51793;DHT22;37850;53.178;6.376;2023-05-24T03:33:51;8.60;99.90
51793;DHT22;37850;53.178;6.376;2023-05-24T03:36:17;8.60;99.90
51793;DHT22;37850;53.178;6.376;2023-05-24T03:38:45;8.70;99.90
51793;DHT22;37850;53.178;6.376;2023-05-24T03:41:10;8.70;99.90
51793;DHT22;37850;53.178;6.376;2023-05-24T03:43:36;8.70;99.90
51793;DHT22;37850;53.178;6.376;2023-05-24T03:46:02;9.10;99.90
51793;DHT22;37850;53.178;6.376;2023-05-24T03:48:27;8.70;99.90
51793;DHT22;37850;53.178;6.376;2023-05-24T03:50:53;8.70;99.90
51793;DHT22;37850;53.178;6.376;2023-05-24T03:53:19;8.70;99.90
51793;DHT22;37850;53.178;6.376;2023-05-24T03:55:45;8.70;99.90
51793;DHT22;37850;53.178;6.376;2023-05-24T03:58:10;8.70;99.90
51793;DHT22;37850;53.178;6.376;2023-05-24T04:00:37;8.70;99.90
51793;DHT22;37850;53.178;6.376;2023-05-24T04:03:02;8.80;99.90
51793;DHT22;37850;53.178;6.376;2023-05-24T04:05:32;8.70;99.90
51793;DHT22;37850;53.178;6.376;2023-05-24T04:07:58;8.80;99.90
51793;DHT22;37850;53.178;6.376;2023-05-24T04:10:23;9.00;99.90
51793;DHT22;37850;53.178;6.376;2023-05-24T04:12:49;8.80;99.90
51793;DHT22;37850;53.178;6.376;2023-05-24T04:15:15;8.80;99.90
51793;DHT22;37850;53.178;6.376;2023-05-24T04:17:44;8.80;99.90
51793;DHT22;37850;53.178;6.376;2023-05-24T04:20:11;8.80;99.90
51793;DHT22;37850;53.178;6.376;2023-05-24T04:22:37;8.80;99.90
51793;DHT22;37850;53.178;6.376;2023-05-24T04:25:04;8.80;99.90
51793;DHT22;37850;53.178;6.376;2023-05-24T04:27:30;8.80;99.90
51793;DHT22;37850;53.178;6.376;2023-05-24T04:29:57;8.90;99.90
51793;DHT22;37850;53.178;6.376;2023-05-24T04:32:23;8.90;99.90
51793;DHT22;37850;53.178;6.376;2023-05-24T04:34:49;8.90;99.90
51793;DHT22;37850;53.178;6.376;2023-05-24T04:37:17;8.90;99.90
51793;DHT22;37850;53.178;6.376;2023-05-24T04:39:43;8.90;99.90
51793;DHT22;37850;53.178;6.376;2023-05-24T04:42:10;9.00;99.90
51793;DHT22;37850;53.178;6.376;2023-05-24T04:44:37;9.00;99.90
51793;DHT22;37850;53.178;6.376;2023-05-24T04:47:05;9.00;99.90
51793;DHT22;37850;53.178;6.376;2023-05-24T04:49:30;9.10;99.90
51793;DHT22;37850;53.178;6.376;2023-05-24T04:51:56;9.10;99.90
51793;DHT22;37850;53.178;6.376;2023-05-24T04:54:22;9.20;99.90
51793;DHT22;37850;53.178;6.376;2023-05-24T04:56:48;9.20;99.90
51793;DHT22;37850;53.178;6.376;2023-05-24T04:59:20;9.70;99.90
51793;DHT22;37850;53.178;6.376;2023-05-24T05:01:46;9.30;99.90
51793;DHT22;37850;53.178;6.376;2023-05-24T05:04:12;9.40;99.90
51793;DHT22;37850;53.178;6.376;2023-05-24T05:06:38;9.50;99.90
51793;DHT22;37850;53.178;6.376;2023-05-24T05:09:08;9.60;99.90
51793;DHT22;37850;53.178;6.376;2023-05-24T05:11:35;9.70;99.90
51793;DHT22;37850;53.178;6.376;2023-05-24T05:14:01;9.70;99.90
51793;DHT22;37850;53.178;6.376;2023-05-24T05:16:27;9.70;99.90
51793;DHT22;37850;53.178;6.376;2023-05-24T05:18:53;9.80;99.90
51793;DHT22;37850;53.178;6.376;2023-05-24T05:21:19;9.80;99.90
51793;DHT22;37850;53.178;6.376;2023-05-24T05:23:45;9.80;99.90
51793;DHT22;37850;53.178;6.376;2023-05-24T05:26:11;9.80;99.90
51793;DHT22;37850;53.178;6.376;2023-05-24T05:28:36;9.80;99.90
51793;DHT22;37850;53.178;6.376;2023-05-24T05:31:02;9.80;99.90
51793;DHT22;37850;53.178;6.376;2023-05-24T05:33:30;9.90;99.90
51793;DHT22;37850;53.178;6.376;2023-05-24T05:35:56;9.90;99.90
51793;DHT22;37850;53.178;6.376;2023-05-24T05:38:22;9.90;99.90
51793;DHT22;37850;53.178;6.376;2023-05-24T05:40:48;9.90;99.90
51793;DHT22;37850;53.178;6.376;2023-05-24T05:43:13;9.90;99.90
51793;DHT22;37850;53.178;6.376;2023-05-24T05:45:39;9.90;99.90
51793;DHT22;37850;53.178;6.376;2023-05-24T05:48:08;9.90;99.90
51793;DHT22;37850;53.178;6.376;2023-05-24T05:50:34;9.90;99.90
51793;DHT22;37850;53.178;6.376;2023-05-24T05:53:00;9.90;99.90
51793;DHT22;37850;53.178;6.376;2023-05-24T05:55:25;10.00;99.90
51793;DHT22;37850;53.178;6.376;2023-05-24T05:57:51;10.00;99.90
51793;DHT22;37850;53.178;6.376;2023-05-24T06:00:17;10.00;99.90
51793;DHT22;37850;53.178;6.376;2023-05-24T06:02:43;10.00;99.90
51793;DHT22;37850;53.178;6.376;2023-05-24T06:05:09;10.10;99.90
51793;DHT22;37850;53.178;6.376;2023-05-24T06:07:35;10.10;99.90
51793;DHT22;37850;53.178;6.376;2023-05-24T06:10:03;10.10;99.90
51793;DHT22;37850;53.178;6.376;2023-05-24T06:12:28;10.10;99.90
51793;DHT22;37850;53.178;6.376;2023-05-24T06:14:54;10.10;99.90
51793;DHT22;37850;53.178;6.376;2023-05-24T06:17:22;10.10;99.90
51793;DHT22;37850;53.178;6.376;2023-05-24T06:19:49;10.20;99.90
51793;DHT22;37850;53.178;6.376;2023-05-24T06:22:18;10.20;99.90
51793;DHT22;37850;53.178;6.376;2023-05-24T06:24:44;10.40;99.90
51793;DHT22;37850;53.178;6.376;2023-05-24T06:27:10;10.20;99.90
51793;DHT22;37850;53.178;6.376;2023-05-24T06:29:36;10.30;99.90
51793;DHT22;37850;53.178;6.376;2023-05-24T06:32:03;10.40;99.90
51793;DHT22;37850;53.178;6.376;2023-05-24T06:34:29;10.30;99.90
51793;DHT22;37850;53.178;6.376;2023-05-24T06:36:54;10.40;99.90
51793;DHT22;37850;53.178;6.376;2023-05-24T06:39:20;10.60;99.90
51793;DHT22;37850;53.178;6.376;2023-05-24T06:41:46;10.40;99.90
51793;DHT22;37850;53.178;6.376;2023-05-24T06:44:15;10.50;99.90
51793;DHT22;37850;53.178;6.376;2023-05-24T06:46:41;10.50;99.90
51793;DHT22;37850;53.178;6.376;2023-05-24T06:49:07;10.50;99.90
51793;DHT22;37850;53.178;6.376;2023-05-24T06:51:33;10.60;99.90
51793;DHT22;37850;53.178;6.376;2023-05-24T06:53:59;10.60;99.90
51793;DHT22;37850;53.178;6.376;2023-05-24T06:56:25;10.60;99.90
51793;DHT22;37850;53.178;6.376;2023-05-24T06:58:51;10.70;99.90
51793;DHT22;37850;53.178;6.376;2023-05-24T07:01:17;10.90;99.90
51793;DHT22;37850;53.178;6.376;2023-05-24T07:03:43;10.80;99.90
51793;DHT22;37850;53.178;6.376;2023-05-24T07:06:09;10.80;99.90
51793;DHT22;37850;53.178;6.376;2023-05-24T07:08:39;10.90;99.90
51793;DHT22;37850;53.178;6.376;2023-05-24T07:11:06;11.00;99.90
51793;DHT22;37850;53.178;6.376;2023-05-24T07:13:32;11.00;99.90
51793;DHT22;37850;53.178;6.376;2023-05-24T07:15:58;11.00;99.90
51793;DHT22;37850;53.178;6.376;2023-05-24T07:18:24;11.10;99.90
51793;DHT22;37850;53.178;6.376;2023-05-24T07:20:50;11.10;99.90
51793;DHT22;37850;53.178;6.376;2023-05-24T07:23:16;11.20;99.90
51793;DHT22;37850;53.178;6.376;2023-05-24T07:25:41;11.30;99.90
51793;DHT22;37850;53.178;6.376;2023-05-24T07:28:08;11.30;99.90
51793;DHT22;37850;53.178;6.376;2023-05-24T07:30:33;11.30;99.90
51793;DHT22;37850;53.178;6.376;2023-05-24T07:32:59;11.40;99.90
51793;DHT22;37850;53.178;6.376;2023-05-24T07:35:26;11.40;99.90
51793;DHT22;37850;53.178;6.376;2023-05-24T07:37:53;11.40;99.90
51793;DHT22;37850;53.178;6.376;2023-05-24T07:40:19;11.50;99.90
51793;DHT22;37850;53.178;6.376;2023-05-24T07:42:45;11.50;99.90
51793;DHT22;37850;53.178;6.376;2023-05-24T07:45:12;11.50;99.90
51793;DHT22;37850;53.178;6.376;2023-05-24T07:47:38;11.50;99.90
51793;DHT22;37850;53.178;6.376;2023-05-24T07:50:04;11.50;99.90
51793;DHT22;37850;53.178;6.376;2023-05-24T07:52:30;11.50;99.90
51793;DHT22;37850;53.178;6.376;2023-05-24T07:54:56;11.60;99.90
51793;DHT22;37850;53.178;6.376;2023-05-24T07:57:22;11.60;99.90
51793;DHT22;37850;53.178;6.376;2023-05-24T07:59:48;11.60;99.90
51793;DHT22;37850;53.178;6.376;2023-05-24T08:02:14;11.60;99.90
51793;DHT22;37850;53.178;6.376;2023-05-24T08:04:41;11.60;99.90
51793;DHT22;37850;53.178;6.376;2023-05-24T08:07:08;11.60;99.90
51793;DHT22;37850;53.178;6.376;2023-05-24T08:09:34;11.70;99.90
51793;DHT22;37850;53.178;6.376;2023-05-24T08:12:04;11.60;99.90
51793;DHT22;37850;53.178;6.376;2023-05-24T08:14:31;11.60;99.90
51793;DHT22;37850;53.178;6.376;2023-05-24T08:16:57;11.70;99.90
51793;DHT22;37850;53.178;6.376;2023-05-24T08:19:25;11.70;99.90
51793;DHT22;37850;53.178;6.376;2023-05-24T08:21:52;11.70;99.90
51793;DHT22;37850;53.178;6.376;2023-05-24T08:24:19;11.80;99.90
51793;DHT22;37850;53.178;6.376;2023-05-24T08:26:45;11.80;99.90
51793;DHT22;37850;53.178;6.376;2023-05-24T08:29:11;11.80;99.90
51793;DHT22;37850;53.178;6.376;2023-05-24T08:31:37;11.80;99.90
51793;DHT22;37850;53.178;6.376;2023-05-24T08:34:03;11.90;99.90
51793;DHT22;37850;53.178;6.376;2023-05-24T08:36:29;12.00;99.90
51793;DHT22;37850;53.178;6.376;2023-05-24T08:38:55;12.00;99.90
51793;DHT22;37850;53.178;6.376;2023-05-24T08:41:21;12.10;99.90
51793;DHT22;37850;53.178;6.376;2023-05-24T08:43:47;12.20;99.90
51793;DHT22;37850;53.178;6.376;2023-05-24T08:46:15;12.20;99.90
51793;DHT22;37850;53.178;6.376;2023-05-24T08:48:45;12.30;99.90
51793;DHT22;37850;53.178;6.376;2023-05-24T08:51:15;12.30;99.90
51793;DHT22;37850;53.178;6.376;2023-05-24T08:53:41;12.30;99.90
51793;DHT22;37850;53.178;6.376;2023-05-24T08:56:15;12.40;99.90
51793;DHT22;37850;53.178;6.376;2023-05-24T08:58:41;12.60;99.90
51793;DHT22;37850;53.178;6.376;2023-05-24T09:01:09;12.50;99.90
51793;DHT22;37850;53.178;6.376;2023-05-24T09:03:36;12.50;99.90
51793;DHT22;37850;53.178;6.376;2023-05-24T09:06:03;12.50;99.90
51793;DHT22;37850;53.178;6.376;2023-05-24T09:08:30;12.60;99.90
51793;DHT22;37850;53.178;6.376;2023-05-24T09:10:58;12.70;99.90
51793;DHT22;37850;53.178;6.376;2023-05-24T09:13:25;12.70;99.90
51793;DHT22;37850;53.178;6.376;2023-05-24T09:15:52;12.70;99.90
51793;DHT22;37850;53.178;6.376;2023-05-24T09:18:18;12.80;99.90
51793;DHT22;37850;53.178;6.376;2023-05-24T09:20:43;12.80;99.90
51793;DHT22;37850;53.178;6.376;2023-05-24T09:23:10;12.90;99.90
51793;DHT22;37850;53.178;6.376;2023-05-24T09:25:45;12.90;99.90
51793;DHT22;37850;53.178;6.376;2023-05-24T09:28:16;12.80;99.90
51793;DHT22;37850;53.178;6.376;2023-05-24T09:30:59;12.80;99.90
51793;DHT22;37850;53.178;6.376;2023-05-24T09:33:34;12.80;99.90
51793;DHT22;37850;53.178;6.376;2023-05-24T09:36:02;12.90;99.90
51793;DHT22;37850;53.178;6.376;2023-05-24T09:38:28;13.00;99.90
51793;DHT22;37850;53.178;6.376;2023-05-24T09:41:02;13.00;99.90
51793;DHT22;37850;53.178;6.376;2023-05-24T09:43:30;13.00;99.90
51793;DHT22;37850;53.178;6.376;2023-05-24T09:45:57;13.00;99.90
51793;DHT22;37850;53.178;6.376;2023-05-24T09:48:24;13.10;99.90
51793;DHT22;37850;53.178;6.376;2023-05-24T09:51:09;13.10;99.90
51793;DHT22;37850;53.178;6.376;2023-05-24T09:53:36;13.10;99.90
51793;DHT22;37850;53.178;6.376;2023-05-24T09:56:05;13.10;99.90
51793;DHT22;37850;53.178;6.376;2023-05-24T09:58:35;13.10;99.90
51793;DHT22;37850;53.178;6.376;2023-05-24T10:01:08;13.20;99.90
51793;DHT22;37850;53.178;6.376;2023-05-24T10:03:54;13.20;99.90
51793;DHT22;37850;53.178;6.376;2023-05-24T10:06:20;13.20;99.90
51793;DHT22;37850;53.178;6.376;2023-05-24T10:08:50;13.30;99.90
51793;DHT22;37850;53.178;6.376;2023-05-24T10:11:19;13.30;99.90
51793;DHT22;37850;53.178;6.376;2023-05-24T10:13:47;13.30;99.90
51793;DHT22;37850;53.178;6.376;2023-05-24T10:16:13;13.30;99.90
51793;DHT22;37850;53.178;6.376;2023-05-24T10:18:39;13.30;99.90
51793;DHT22;37850;53.178;6.376;2023-05-24T10:21:05;13.40;99.90
51793;DHT22;37850;53.178;6.376;2023-05-24T10:23:33;13.40;99.90
51793;DHT22;37850;53.178;6.376;2023-05-24T10:26:09;13.50;99.90
51793;DHT22;37850;53.178;6.376;2023-05-24T10:28:57;13.40;99.90
51793;DHT22;37850;53.178;6.376;2023-05-24T10:31:31;13.50;99.90
51793;DHT22;37850;53.178;6.376;2023-05-24T10:33:58;13.60;99.90
51793;DHT22;37850;53.178;6.376;2023-05-24T10:36:25;13.60;99.90
51793;DHT22;37850;53.178;6.376;2023-05-24T10:38:51;13.60;99.90
51793;DHT22;37850;53.178;6.376;2023-05-24T10:41:18;13.70;99.90
51793;DHT22;37850;53.178;6.376;2023-05-24T10:43:47;13.80;99.90
51793;DHT22;37850;53.178;6.376;2023-05-24T10:46:14;13.80;99.90
51793;DHT22;37850;53.178;6.376;2023-05-24T10:48:43;13.80;99.90
51793;DHT22;37850;53.178;6.376;2023-05-24T10:54:18;13.90;99.90
51793;DHT22;37850;53.178;6.376;2023-05-24T10:56:49;14.00;99.90
51793;DHT22;37850;53.178;6.376;2023-05-24T10:59:23;13.90;99.90
51793;DHT22;37850;53.178;6.376;2023-05-24T11:01:57;13.90;99.90
51793;DHT22;37850;53.178;6.376;2023-05-24T11:04:23;13.90;99.90
51793;DHT22;37850;53.178;6.376;2023-05-24T11:06:56;13.90;99.90
51793;DHT22;37850;53.178;6.376;2023-05-24T11:09:23;13.90;99.90
51793;DHT22;37850;53.178;6.376;2023-05-24T11:11:54;14.00;99.90
51793;DHT22;37850;53.178;6.376;2023-05-24T11:14:27;14.10;99.90
51793;DHT22;37850;53.178;6.376;2023-05-24T11:16:54;14.10;99.90
51793;DHT22;37850;53.178;6.376;2023-05-24T11:19:22;14.10;99.90
51793;DHT22;37850;53.178;6.376;2023-05-24T11:21:52;14.20;99.90
51793;DHT22;37850;53.178;6.376;2023-05-24T11:24:23;14.20;99.90
51793;DHT22;37850;53.178;6.376;2023-05-24T11:26:50;14.20;99.90
51793;DHT22;37850;53.178;6.376;2023-05-24T11:29:17;14.20;99.90
51793;DHT22;37850;53.178;6.376;2023-05-24T11:31:49;14.30;99.90
51793;DHT22;37850;53.178;6.376;2023-05-24T11:34:15;14.40;99.90
51793;DHT22;37850;53.178;6.376;2023-05-24T11:36:42;14.40;99.90
51793;DHT22;37850;53.178;6.376;2023-05-24T11:39:08;14.40;99.90
51793;DHT22;37850;53.178;6.376;2023-05-24T11:41:38;14.40;99.90
51793;DHT22;37850;53.178;6.376;2023-05-24T11:44:05;14.40;99.90
51793;DHT22;37850;53.178;6.376;2023-05-24T11:46:31;14.40;99.90
51793;DHT22;37850;53.178;6.376;2023-05-24T11:48:58;14.30;99.90
51793;DHT22;37850;53.178;6.376;2023-05-24T11:51:29;14.30;99.90
51793;DHT22;37850;53.178;6.376;2023-05-24T11:53:56;14.30;99.90
51793;DHT22;37850;53.178;6.376;2023-05-24T11:56:23;14.20;99.90
51793;DHT22;37850;53.178;6.376;2023-05-24T11:58:49;14.20;99.90
51793;DHT22;37850;53.178;6.376;2023-05-24T12:01:27;14.20;99.90
51793;DHT22;37850;53.178;6.376;2023-05-24T12:03:53;14.20;99.90
51793;DHT22;37850;53.178;6.376;2023-05-24T12:06:20;14.20;99.90
51793;DHT22;37850;53.178;6.376;2023-05-24T12:08:47;14.20;99.90
51793;DHT22;37850;53.178;6.376;2023-05-24T12:11:15;14.20;99.90
51793;DHT22;37850;53.178;6.376;2023-05-24T12:13:42;14.20;99.90
51793;DHT22;37850;53.178;6.376;2023-05-24T12:16:10;14.10;99.90
51793;DHT22;37850;53.178;6.376;2023-05-24T12:18:37;14.10;99.90
51793;DHT22;37850;53.178;6.376;2023-05-24T12:21:09;14.10;99.90
51793;DHT22;37850;53.178;6.376;2023-05-24T12:23:36;14.10;99.90
51793;DHT22;37850;53.178;6.376;2023-05-24T12:26:02;14.00;99.90
51793;DHT22;37850;53.178;6.376;2023-05-24T12:28:36;14.10;99.90
51793;DHT22;37850;53.178;6.376;2023-05-24T12:31:04;14.00;99.90
51793;DHT22;37850;53.178;6.376;2023-05-24T12:33:31;14.00;99.90
51793;DHT22;37850;53.178;6.376;2023-05-24T12:35:57;14.00;99.90
51793;DHT22;37850;53.178;6.376;2023-05-24T12:38:24;14.00;99.90
51793;DHT22;37850;53.178;6.376;2023-05-24T12:40:53;14.00;99.90
51793;DHT22;37850;53.178;6.376;2023-05-24T12:43:19;13.90;99.90
51793;DHT22;37850;53.178;6.376;2023-05-24T12:45:46;13.90;99.90
51793;DHT22;37850;53.178;6.376;2023-05-24T12:48:12;13.90;99.90
51793;DHT22;37850;53.178;6.376;2023-05-24T12:50:38;13.90;99.90
51793;DHT22;37850;53.178;6.376;2023-05-24T12:53:04;13.90;99.90
51793;DHT22;37850;53.178;6.376;2023-05-24T12:55:30;13.90;99.90
51793;DHT22;37850;53.178;6.376;2023-05-24T12:57:56;13.90;99.90
51793;DHT22;37850;53.178;6.376;2023-05-24T13:00:24;14.00;99.90
51793;DHT22;37850;53.178;6.376;2023-05-24T13:02:54;14.00;99.90
51793;DHT22;37850;53.178;6.376;2023-05-24T13:05:21;14.00;99.90
51793;DHT22;37850;53.178;6.376;2023-05-24T13:07:49;13.90;99.90
51793;DHT22;37850;53.178;6.376;2023-05-24T13:10:15;13.90;99.90
51793;DHT22;37850;53.178;6.376;2023-05-24T13:12:40;13.90;99.90
51793;DHT22;37850;53.178;6.376;2023-05-24T13:15:07;13.90;99.90
51793;DHT22;37850;53.178;6.376;2023-05-24T13:17:33;13.90;99.90
51793;DHT22;37850;53.178;6.376;2023-05-24T13:20:01;13.90;99.90
51793;DHT22;37850;53.178;6.376;2023-05-24T13:22:29;14.00;99.90
51793;DHT22;37850;53.178;6.376;2023-05-24T13:24:55;14.00;99.90
51793;DHT22;37850;53.178;6.376;2023-05-24T13:27:21;14.00;99.90
51793;DHT22;37850;53.178;6.376;2023-05-24T13:29:47;14.00;99.90
51793;DHT22;37850;53.178;6.376;2023-05-24T13:32:12;14.00;99.90
51793;DHT22;37850;53.178;6.376;2023-05-24T13:34:38;14.00;99.90
51793;DHT22;37850;53.178;6.376;2023-05-24T13:37:05;14.00;99.90
51793;DHT22;37850;53.178;6.376;2023-05-24T13:39:32;14.10;99.90
51793;DHT22;37850;53.178;6.376;2023-05-24T13:42:00;14.10;99.90
51793;DHT22;37850;53.178;6.376;2023-05-24T13:44:26;14.10;99.90
51793;DHT22;37850;53.178;6.376;2023-05-24T13:46:52;14.20;99.90
51793;DHT22;37850;53.178;6.376;2023-05-24T13:49:19;14.30;99.90
51793;DHT22;37850;53.178;6.376;2023-05-24T13:51:45;14.10;99.90
51793;DHT22;37850;53.178;6.376;2023-05-24T13:54:11;14.10;99.90
51793;DHT22;37850;53.178;6.376;2023-05-24T13:56:38;14.10;99.90
51793;DHT22;37850;53.178;6.376;2023-05-24T13:59:05;14.20;99.90
51793;DHT22;37850;53.178;6.376;2023-05-24T14:01:32;14.20;99.90
51793;DHT22;37850;53.178;6.376;2023-05-24T14:03:59;14.40;99.90
51793;DHT22;37850;53.178;6.376;2023-05-24T14:06:25;14.40;99.90
51793;DHT22;37850;53.178;6.376;2023-05-24T14:08:52;14.50;99.90
51793;DHT22;37850;53.178;6.376;2023-05-24T14:11:18;14.60;99.90
51793;DHT22;37850;53.178;6.376;2023-05-24T14:13:44;14.60;99.90
51793;DHT22;37850;53.178;6.376;2023-05-24T14:16:10;14.60;99.90
51793;DHT22;37850;53.178;6.376;2023-05-24T14:18:36;14.50;99.90
51793;DHT22;37850;53.178;6.376;2023-05-24T14:21:02;14.50;99.90
51793;DHT22;37850;53.178;6.376;2023-05-24T14:23:28;14.40;99.90
51793;DHT22;37850;53.178;6.376;2023-05-24T14:25:57;14.40;99.90
51793;DHT22;37850;53.178;6.376;2023-05-24T14:28:23;14.40;99.90
51793;DHT22;37850;53.178;6.376;2023-05-24T14:30:49;14.50;99.90
51793;DHT22;37850;53.178;6.376;2023-05-24T14:33:15;14.50;99.90
51793;DHT22;37850;53.178;6.376;2023-05-24T14:35:41;14.50;99.90
51793;DHT22;37850;53.178;6.376;2023-05-24T14:38:08;14.50;99.90
51793;DHT22;37850;53.178;6.376;2023-05-24T14:40:35;14.60;99.90
51793;DHT22;37850;53.178;6.376;2023-05-24T14:43:08;14.70;99.90
51793;DHT22;37850;53.178;6.376;2023-05-24T14:45:39;14.80;99.90
51793;DHT22;37850;53.178;6.376;2023-05-24T14:48:06;14.80;99.90
51793;DHT22;37850;53.178;6.376;2023-05-24T14:50:36;14.80;99.90
51793;DHT22;37850;53.178;6.376;2023-05-24T14:53:02;14.80;99.90
51793;DHT22;37850;53.178;6.376;2023-05-24T14:55:34;14.90;99.90
51793;DHT22;37850;53.178;6.376;2023-05-24T14:58:00;14.90;99.90
51793;DHT22;37850;53.178;6.376;2023-05-24T15:00:26;14.90;99.90
51793;DHT22;37850;53.178;6.376;2023-05-24T15:02:52;15.00;99.90
51793;DHT22;37850;53.178;6.376;2023-05-24T15:05:18;15.00;99.90
51793;DHT22;37850;53.178;6.376;2023-05-24T15:07:44;15.00;99.90
51793;DHT22;37850;53.178;6.376;2023-05-24T15:10:14;15.10;99.90
51793;DHT22;37850;53.178;6.376;2023-05-24T15:12:43;15.10;99.90
51793;DHT22;37850;53.178;6.376;2023-05-24T15:15:09;15.10;99.90
51793;DHT22;37850;53.178;6.376;2023-05-24T15:17:35;15.00;99.90
51793;DHT22;37850;53.178;6.376;2023-05-24T15:20:01;15.00;99.90
51793;DHT22;37850;53.178;6.376;2023-05-24T15:22:27;14.90;99.90
51793;DHT22;37850;53.178;6.376;2023-05-24T15:24:53;14.90;99.90
51793;DHT22;37850;53.178;6.376;2023-05-24T15:27:18;14.90;99.90
51793;DHT22;37850;53.178;6.376;2023-05-24T15:29:44;14.80;99.90
51793;DHT22;37850;53.178;6.376;2023-05-24T15:32:10;14.80;99.90
51793;DHT22;37850;53.178;6.376;2023-05-24T15:34:35;14.90;99.90
51793;DHT22;37850;53.178;6.376;2023-05-24T15:37:01;14.90;99.90
51793;DHT22;37850;53.178;6.376;2023-05-24T15:39:27;14.90;99.90
51793;DHT22;37850;53.178;6.376;2023-05-24T15:41:53;14.90;99.90
51793;DHT22;37850;53.178;6.376;2023-05-24T15:44:19;14.90;99.90
51793;DHT22;37850;53.178;6.376;2023-05-24T15:46:45;14.90;99.90
51793;DHT22;37850;53.178;6.376;2023-05-24T15:49:12;15.00;99.90
51793;DHT22;37850;53.178;6.376;2023-05-24T15:51:37;14.90;99.90
51793;DHT22;37850;53.178;6.376;2023-05-24T15:54:03;15.00;99.90
51793;DHT22;37850;53.178;6.376;2023-05-24T15:56:29;15.00;99.90
51793;DHT22;37850;53.178;6.376;2023-05-24T15:58:54;14.90;99.90